sensor_id;sensor_type;location;lat;lon;timestamp;pressure;altitude;pressure_sealevel;temperature;humidity
63006;BME280;53704;52.532;6.426;2023-10-13T00:00:56;101111.91;;;15.43;100.00
63006;BME280;53704;52.532;6.426;2023-10-13T00:03:25;101116.34;;;15.29;100.00
63006;BME280;53704;52.532;6.426;2023-10-13T00:05:57;101105.13;;;15.32;100.00
63006;BME280;53704;52.532;6.426;2023-10-13T00:08:28;101104.81;;;15.27;100.00
63006;BME280;53704;52.532;6.426;2023-10-13T00:10:54;101093.69;;;15.22;100.00
63006;BME280;53704;52.532;6.426;2023-10-13T00:13:26;101087.41;;;15.36;100.00
63006;BME280;53704;52.532;6.426;2023-10-13T00:15:51;101090.44;;;15.27;100.00
63006;BME280;53704;52.532;6.426;2023-10-13T00:18:27;101089.38;;;15.43;100.00
63006;BME280;53704;52.532;6.426;2023-10-13T00:20:58;101084.78;;;15.43;100.00
63006;BME280;53704;52.532;6.426;2023-10-13T00:23:24;101088.53;;;15.42;100.00
63006;BME280;53704;52.532;6.426;2023-10-13T00:25:52;101087.22;;;15.38;100.00
63006;BME280;53704;52.532;6.426;2023-10-13T00:28:28;101090.78;;;15.38;100.00
63006;BME280;53704;52.532;6.426;2023-10-13T00:31:01;101089.03;;;15.31;100.00
63006;BME280;53704;52.532;6.426;2023-10-13T00:33:39;101087.53;;;15.28;100.00
63006;BME280;53704;52.532;6.426;2023-10-13T00:36:07;101083.50;;;15.39;100.00
63006;BME280;53704;52.532;6.426;2023-10-13T00:38:34;101084.97;;;15.42;100.00
63006;BME280;53704;52.532;6.426;2023-10-13T00:41:02;101078.00;;;15.32;100.00
63006;BME280;53704;52.532;6.426;2023-10-13T00:43:46;101073.84;;;15.36;100.00
63006;BME280;53704;52.532;6.426;2023-10-13T00:46:32;101076.31;;;15.31;100.00
63006;BME280;53704;52.532;6.426;2023-10-13T00:49:00;101077.31;;;15.30;100.00
63006;BME280;53704;52.532;6.426;2023-10-13T00:51:27;101073.03;;;15.36;100.00
63006;BME280;53704;52.532;6.426;2023-10-13T00:54:04;101072.09;;;15.29;100.00
63006;BME280;53704;52.532;6.426;2023-10-13T00:56:41;101068.53;;;15.28;100.00
63006;BME280;53704;52.532;6.426;2023-10-13T00:59:30;101067.41;;;15.37;100.00
63006;BME280;53704;52.532;6.426;2023-10-13T01:02:06;101062.25;;;15.43;100.00
63006;BME280;53704;52.532;6.426;2023-10-13T01:04:51;101053.09;;;15.44;100.00
63006;BME280;53704;52.532;6.426;2023-10-13T01:07:16;101053.84;;;15.37;100.00
63006;BME280;53704;52.532;6.426;2023-10-13T01:09:42;101052.34;;;15.35;100.00
63006;BME280;53704;52.532;6.426;2023-10-13T01:12:08;101052.28;;;15.28;100.00
63006;BME280;53704;52.532;6.426;2023-10-13T01:14:34;101046.34;;;15.40;100.00
63006;BME280;53704;52.532;6.426;2023-10-13T01:17:01;101049.88;;;15.55;100.00
63006;BME280;53704;52.532;6.426;2023-10-13T01:19:26;101037.13;;;15.34;100.00
63006;BME280;53704;52.532;6.426;2023-10-13T01:21:53;101040.84;;;15.33;100.00
63006;BME280;53704;52.532;6.426;2023-10-13T01:24:32;101037.94;;;15.34;100.00
63006;BME280;53704;52.532;6.426;2023-10-13T01:27:02;101034.56;;;15.47;100.00
63006;BME280;53704;52.532;6.426;2023-10-13T01:29:44;101027.94;;;15.35;100.00
63006;BME280;53704;52.532;6.426;2023-10-13T01:32:22;101023.75;;;15.32;100.00
63006;BME280;53704;52.532;6.426;2023-10-13T01:34:48;101029.63;;;15.36;100.00
63006;BME280;53704;52.532;6.426;2023-10-13T01:37:15;101023.38;;;15.35;100.00
63006;BME280;53704;52.532;6.426;2023-10-13T01:39:44;101020.72;;;15.42;100.00
63006;BME280;53704;52.532;6.426;2023-10-13T01:42:16;101010.50;;;15.44;100.00
63006;BME280;53704;52.532;6.426;2023-10-13T01:44:47;101010.44;;;15.37;100.00
63006;BME280;53704;52.532;6.426;2023-10-13T01:47:13;101013.88;;;15.46;100.00
63006;BME280;53704;52.532;6.426;2023-10-13T01:49:39;101005.22;;;15.36;100.00
63006;BME280;53704;52.532;6.426;2023-10-13T01:52:09;101005.28;;;15.43;100.00
63006;BME280;53704;52.532;6.426;2023-10-13T01:54:41;101003.78;;;15.40;100.00
63006;BME280;53704;52.532;6.426;2023-10-13T01:57:07;100992.28;;;15.38;100.00
63006;BME280;53704;52.532;6.426;2023-10-13T01:59:33;100985.19;;;15.37;100.00
63006;BME280;53704;52.532;6.426;2023-10-13T02:02:03;100983.31;;;15.37;100.00
63006;BME280;53704;52.532;6.426;2023-10-13T02:04:30;100977.97;;;15.44;100.00
63006;BME280;53704;52.532;6.426;2023-10-13T02:07:07;100973.09;;;15.40;100.00
63006;BME280;53704;52.532;6.426;2023-10-13T02:09:33;100975.63;;;15.41;100.00
63006;BME280;53704;52.532;6.426;2023-10-13T02:12:02;100975.63;;;15.41;100.00
63006;BME280;53704;52.532;6.426;2023-10-13T02:14:27;100968.50;;;15.40;100.00
63006;BME280;53704;52.532;6.426;2023-10-13T02:16:53;100972.16;;;15.47;100.00
63006;BME280;53704;52.532;6.426;2023-10-13T02:19:37;100963.41;;;15.30;100.00
63006;BME280;53704;52.532;6.426;2023-10-13T02:22:05;100955.22;;;15.45;100.00
63006;BME280;53704;52.532;6.426;2023-10-13T02:24:34;100954.88;;;15.33;100.00
63006;BME280;53704;52.532;6.426;2023-10-13T02:26:59;100954.00;;;15.26;100.00
63006;BME280;53704;52.532;6.426;2023-10-13T02:29:29;100948.19;;;15.29;100.00
63006;BME280;53704;52.532;6.426;2023-10-13T02:31:55;100937.97;;;15.31;100.00
63006;BME280;53704;52.532;6.426;2023-10-13T02:34:21;100934.44;;;15.31;100.00
63006;BME280;53704;52.532;6.426;2023-10-13T02:36:48;100932.56;;;15.31;100.00
63006;BME280;53704;52.532;6.426;2023-10-13T02:39:15;100936.63;;;15.42;100.00
63006;BME280;53704;52.532;6.426;2023-10-13T02:41:50;100931.78;;;15.37;100.00
63006;BME280;53704;52.532;6.426;2023-10-13T02:44:16;100927.00;;;15.40;100.00
63006;BME280;53704;52.532;6.426;2023-10-13T02:46:57;100937.91;;;15.46;100.00
63006;BME280;53704;52.532;6.426;2023-10-13T02:49:25;100917.25;;;15.45;100.00
63006;BME280;53704;52.532;6.426;2023-10-13T02:51:52;100924.47;;;15.38;100.00
63006;BME280;53704;52.532;6.426;2023-10-13T02:54:18;100926.59;;;15.43;100.00
63006;BME280;53704;52.532;6.426;2023-10-13T02:56:44;100913.63;;;15.38;100.00
63006;BME280;53704;52.532;6.426;2023-10-13T02:59:23;100912.84;;;15.44;100.00
63006;BME280;53704;52.532;6.426;2023-10-13T03:02:01;100919.38;;;15.50;100.00
63006;BME280;53704;52.532;6.426;2023-10-13T03:04:32;100912.47;;;15.47;100.00
63006;BME280;53704;52.532;6.426;2023-10-13T03:06:58;100913.19;;;15.34;100.00
63006;BME280;53704;52.532;6.426;2023-10-13T03:09:24;100912.84;;;15.44;100.00
63006;BME280;53704;52.532;6.426;2023-10-13T03:11:50;100907.22;;;15.46;100.00
63006;BME280;53704;52.532;6.426;2023-10-13T03:14:23;100904.19;;;15.55;100.00
63006;BME280;53704;52.532;6.426;2023-10-13T03:16:53;100899.47;;;15.43;100.00
63006;BME280;53704;52.532;6.426;2023-10-13T03:19:19;100893.22;;;15.42;100.00
63006;BME280;53704;52.532;6.426;2023-10-13T03:21:45;100898.41;;;15.37;100.00
63006;BME280;53704;52.532;6.426;2023-10-13T03:24:20;100894.50;;;15.46;100.00
63006;BME280;53704;52.532;6.426;2023-10-13T03:26:48;100884.41;;;15.40;100.00
63006;BME280;53704;52.532;6.426;2023-10-13T03:29:17;100889.59;;;15.35;100.00
63006;BME280;53704;52.532;6.426;2023-10-13T03:31:47;100883.97;;;15.36;100.00
63006;BME280;53704;52.532;6.426;2023-10-13T03:34:20;100876.94;;;15.42;100.00
63006;BME280;53704;52.532;6.426;2023-10-13T03:36:45;100867.13;;;15.41;100.00
63006;BME280;53704;52.532;6.426;2023-10-13T03:39:23;100863.78;;;15.39;100.00
63006;BME280;53704;52.532;6.426;2023-10-13T03:41:57;100855.19;;;15.35;100.00
63006;BME280;53704;52.532;6.426;2023-10-13T03:44:23;100853.56;;;15.41;100.00
63006;BME280;53704;52.532;6.426;2023-10-13T03:46:48;100841.53;;;15.50;100.00
63006;BME280;53704;52.532;6.426;2023-10-13T03:49:15;100839.75;;;15.36;100.00
63006;BME280;53704;52.532;6.426;2023-10-13T03:51:46;100828.94;;;15.43;100.00
63006;BME280;53704;52.532;6.426;2023-10-13T03:54:13;100822.31;;;15.45;100.00
63006;BME280;53704;52.532;6.426;2023-10-13T03:56:42;100811.78;;;15.35;100.00
63006;BME280;53704;52.532;6.426;2023-10-13T03:59:10;100806.06;;;15.52;100.00
63006;BME280;53704;52.532;6.426;2023-10-13T04:01:46;100802.22;;;15.40;100.00
63006;BME280;53704;52.532;6.426;2023-10-13T04:04:16;100797.38;;;15.35;100.00
63006;BME280;53704;52.532;6.426;2023-10-13T04:06:59;100794.91;;;15.40;100.00
63006;BME280;53704;52.532;6.426;2023-10-13T04:09:30;100798.44;;;15.34;100.00
63006;BME280;53704;52.532;6.426;2023-10-13T04:11:56;100794.03;;;15.33;100.00
63006;BME280;53704;52.532;6.426;2023-10-13T04:14:45;100792.38;;;15.38;100.00
63006;BME280;53704;52.532;6.426;2023-10-13T04:17:10;100768.63;;;15.41;100.00
63006;BME280;53704;52.532;6.426;2023-10-13T04:19:51;100760.47;;;15.34;100.00
63006;BME280;53704;52.532;6.426;2023-10-13T04:22:39;100768.41;;;15.35;100.00
63006;BME280;53704;52.532;6.426;2023-10-13T04:25:24;100757.56;;;15.35;100.00
63006;BME280;53704;52.532;6.426;2023-10-13T04:28:01;100743.72;;;15.30;100.00
63006;BME280;53704;52.532;6.426;2023-10-13T04:30:47;100734.16;;;15.34;100.00
63006;BME280;53704;52.532;6.426;2023-10-13T04:33:32;100728.75;;;15.34;100.00
63006;BME280;53704;52.532;6.426;2023-10-13T04:38:47;100721.16;;;15.23;100.00
63006;BME280;53704;52.532;6.426;2023-10-13T04:41:24;100712.63;;;15.26;100.00
63006;BME280;53704;52.532;6.426;2023-10-13T04:43:49;100708.19;;;15.18;100.00
63006;BME280;53704;52.532;6.426;2023-10-13T04:46:21;100698.78;;;15.21;100.00
63006;BME280;53704;52.532;6.426;2023-10-13T04:49:22;100685.22;;;15.21;100.00
63006;BME280;53704;52.532;6.426;2023-10-13T04:51:55;100671.28;;;15.24;100.00
63006;BME280;53704;52.532;6.426;2023-10-13T04:54:28;100653.94;;;15.18;100.00
63006;BME280;53704;52.532;6.426;2023-10-13T04:57:18;100659.38;;;15.18;100.00
63006;BME280;53704;52.532;6.426;2023-10-13T05:00:04;100650.81;;;15.15;100.00
63006;BME280;53704;52.532;6.426;2023-10-13T05:02:41;100643.13;;;15.25;100.00
63006;BME280;53704;52.532;6.426;2023-10-13T05:05:20;100635.41;;;15.22;100.00
63006;BME280;53704;52.532;6.426;2023-10-13T05:08:05;100641.72;;;15.29;100.00
63006;BME280;53704;52.532;6.426;2023-10-13T05:10:49;100636.50;;;15.28;100.00
63006;BME280;53704;52.532;6.426;2023-10-13T05:13:33;100633.78;;;15.28;100.00
63006;BME280;53704;52.532;6.426;2023-10-13T05:16:17;100617.00;;;15.17;100.00
63006;BME280;53704;52.532;6.426;2023-10-13T05:19:01;100618.28;;;15.15;100.00
63006;BME280;53704;52.532;6.426;2023-10-13T05:21:45;100601.75;;;15.10;100.00
63006;BME280;53704;52.532;6.426;2023-10-13T05:24:29;100605.31;;;15.10;100.00
63006;BME280;53704;52.532;6.426;2023-10-13T05:27:13;100608.06;;;15.17;100.00
63006;BME280;53704;52.532;6.426;2023-10-13T05:29:57;100594.66;;;15.09;100.00
63006;BME280;53704;52.532;6.426;2023-10-13T05:32:41;100598.22;;;15.16;100.00
63006;BME280;53704;52.532;6.426;2023-10-13T05:35:25;100587.16;;;15.11;100.00
63006;BME280;53704;52.532;6.426;2023-10-13T05:38:09;100583.63;;;15.10;100.00
63006;BME280;53704;52.532;6.426;2023-10-13T05:40:57;100579.22;;;15.09;100.00
63006;BME280;53704;52.532;6.426;2023-10-13T05:43:41;100571.91;;;15.10;100.00
63006;BME280;53704;52.532;6.426;2023-10-13T05:46:25;100563.78;;;15.10;100.00
63006;BME280;53704;52.532;6.426;2023-10-13T05:48:54;100562.16;;;15.15;100.00
63006;BME280;53704;52.532;6.426;2023-10-13T05:51:23;100556.09;;;15.13;100.00
63006;BME280;53704;52.532;6.426;2023-10-13T05:54:00;100546.50;;;15.17;100.00
63006;BME280;53704;52.532;6.426;2023-10-13T05:56:39;100547.97;;;15.13;100.00
63006;BME280;53704;52.532;6.426;2023-10-13T05:59:23;100549.41;;;15.09;100.00
63006;BME280;53704;52.532;6.426;2023-10-13T06:02:07;100556.16;;;15.27;100.00
63006;BME280;53704;52.532;6.426;2023-10-13T06:04:51;100565.91;;;15.14;100.00
63006;BME280;53704;52.532;6.426;2023-10-13T06:07:35;100575.69;;;15.09;100.00
63006;BME280;53704;52.532;6.426;2023-10-13T06:10:19;100572.50;;;15.05;100.00
63006;BME280;53704;52.532;6.426;2023-10-13T06:13:03;100571.31;;;15.14;100.00
63006;BME280;53704;52.532;6.426;2023-10-13T06:15:47;100566.38;;;15.25;100.00
63006;BME280;53704;52.532;6.426;2023-10-13T06:18:31;100569.88;;;15.18;100.00
63006;BME280;53704;52.532;6.426;2023-10-13T06:21:15;100575.94;;;15.20;100.00
63006;BME280;53704;52.532;6.426;2023-10-13T06:23:59;100573.81;;;15.16;100.00
63006;BME280;53704;52.532;6.426;2023-10-13T06:26:43;100585.75;;;15.22;100.00
63006;BME280;53704;52.532;6.426;2023-10-13T06:29:27;100574.25;;;15.19;100.00
63006;BME280;53704;52.532;6.426;2023-10-13T06:31:52;100575.34;;;15.25;100.00
63006;BME280;53704;52.532;6.426;2023-10-13T06:34:23;100586.66;;;15.35;100.00
63006;BME280;53704;52.532;6.426;2023-10-13T06:37:04;100575.63;;;15.37;100.00
63006;BME280;53704;52.532;6.426;2023-10-13T06:39:48;100578.75;;;15.34;100.00
63006;BME280;53704;52.532;6.426;2023-10-13T06:42:13;100568.50;;;15.36;100.00
63006;BME280;53704;52.532;6.426;2023-10-13T06:44:40;100562.28;;;15.42;100.00
63006;BME280;53704;52.532;6.426;2023-10-13T06:47:10;100569.81;;;15.47;100.00
63006;BME280;53704;52.532;6.426;2023-10-13T06:49:37;100568.56;;;15.49;100.00
63006;BME280;53704;52.532;6.426;2023-10-13T06:52:05;100569.63;;;15.48;100.00
63006;BME280;53704;52.532;6.426;2023-10-13T06:54:32;100555.25;;;15.54;100.00
63006;BME280;53704;52.532;6.426;2023-10-13T06:57:02;100553.13;;;15.50;100.00
63006;BME280;53704;52.532;6.426;2023-10-13T06:59:32;100555.06;;;15.63;100.00
63006;BME280;53704;52.532;6.426;2023-10-13T07:02:00;100550.25;;;15.65;100.00
63006;BME280;53704;52.532;6.426;2023-10-13T07:04:37;100536.69;;;15.65;100.00
63006;BME280;53704;52.532;6.426;2023-10-13T07:07:05;100540.47;;;15.70;100.00
63006;BME280;53704;52.532;6.426;2023-10-13T07:09:36;100552.56;;;15.68;100.00
63006;BME280;53704;52.532;6.426;2023-10-13T07:12:03;100555.91;;;15.70;100.00
63006;BME280;53704;52.532;6.426;2023-10-13T07:14:34;100556.97;;;15.69;100.00
63006;BME280;53704;52.532;6.426;2023-10-13T07:17:03;100550.53;;;15.77;100.00
63006;BME280;53704;52.532;6.426;2023-10-13T07:19:31;100545.69;;;15.72;100.00
63006;BME280;53704;52.532;6.426;2023-10-13T07:22:01;100566.75;;;15.70;100.00
63006;BME280;53704;52.532;6.426;2023-10-13T07:24:46;100557.56;;;15.71;100.00
63006;BME280;53704;52.532;6.426;2023-10-13T07:27:19;100549.03;;;15.67;100.00
63006;BME280;53704;52.532;6.426;2023-10-13T07:29:50;100538.38;;;15.66;100.00
63006;BME280;53704;52.532;6.426;2023-10-13T07:32:24;100532.75;;;15.67;100.00
63006;BME280;53704;52.532;6.426;2023-10-13T07:34:53;100522.34;;;15.78;100.00
63006;BME280;53704;52.532;6.426;2023-10-13T07:37:22;100527.34;;;15.81;100.00
63006;BME280;53704;52.532;6.426;2023-10-13T07:39:50;100515.25;;;15.83;100.00
63006;BME280;53704;52.532;6.426;2023-10-13T07:42:16;100513.78;;;15.87;100.00
63006;BME280;53704;52.532;6.426;2023-10-13T07:44:44;100523.22;;;15.91;100.00
63006;BME280;53704;52.532;6.426;2023-10-13T07:47:12;100509.63;;;15.78;100.00
63006;BME280;53704;52.532;6.426;2023-10-13T07:49:40;100506.06;;;15.78;100.00
63006;BME280;53704;52.532;6.426;2023-10-13T07:52:10;100501.28;;;15.86;100.00
63006;BME280;53704;52.532;6.426;2023-10-13T07:54:46;100500.63;;;15.84;100.00
63006;BME280;53704;52.532;6.426;2023-10-13T07:57:21;100496.25;;;15.97;100.00
63006;BME280;53704;52.532;6.426;2023-10-13T07:59:55;100477.47;;;15.88;100.00
63006;BME280;53704;52.532;6.426;2023-10-13T08:02:32;100463.47;;;15.98;100.00
63006;BME280;53704;52.532;6.426;2023-10-13T08:05:14;100466.41;;;15.97;100.00
63006;BME280;53704;52.532;6.426;2023-10-13T08:07:49;100458.06;;;15.98;100.00
63006;BME280;53704;52.532;6.426;2023-10-13T08:10:15;100453.47;;;16.05;100.00
63006;BME280;53704;52.532;6.426;2023-10-13T08:12:42;100451.16;;;16.09;100.00
63006;BME280;53704;52.532;6.426;2023-10-13T08:15:09;100452.44;;;16.13;100.00
63006;BME280;53704;52.532;6.426;2023-10-13T08:17:46;100455.97;;;16.20;100.00
63006;BME280;53704;52.532;6.426;2023-10-13T08:20:14;100447.59;;;16.28;100.00
63006;BME280;53704;52.532;6.426;2023-10-13T08:22:42;100436.09;;;16.33;100.00
63006;BME280;53704;52.532;6.426;2023-10-13T08:25:12;100442.16;;;16.42;100.00
63006;BME280;53704;52.532;6.426;2023-10-13T08:27:46;100446.53;;;16.50;100.00
63006;BME280;53704;52.532;6.426;2023-10-13T08:30:38;100432.91;;;16.56;100.00
63006;BME280;53704;52.532;6.426;2023-10-13T08:33:19;100440.03;;;16.57;100.00
63006;BME280;53704;52.532;6.426;2023-10-13T08:35:53;100415.34;;;16.66;100.00
63006;BME280;53704;52.532;6.426;2023-10-13T08:38:41;100436.88;;;16.67;100.00
63006;BME280;53704;52.532;6.426;2023-10-13T08:41:16;100439.97;;;16.71;100.00
63006;BME280;53704;52.532;6.426;2023-10-13T08:43:44;100437.44;;;16.76;100.00
63006;BME280;53704;52.532;6.426;2023-10-13T08:46:16;100431.59;;;16.86;100.00
63006;BME280;53704;52.532;6.426;2023-10-13T08:48:56;100410.47;;;16.88;100.00
63006;BME280;53704;52.532;6.426;2023-10-13T08:51:44;100417.13;;;16.85;100.00
63006;BME280;53704;52.532;6.426;2023-10-13T08:54:15;100420.50;;;16.87;100.00
63006;BME280;53704;52.532;6.426;2023-10-13T08:57:06;100410.88;;;16.91;100.00
63006;BME280;53704;52.532;6.426;2023-10-13T08:59:46;100405.84;;;16.95;100.00
63006;BME280;53704;52.532;6.426;2023-10-13T09:02:24;100410.19;;;17.03;100.00
63006;BME280;53704;52.532;6.426;2023-10-13T09:05:09;100412.66;;;17.11;100.00
63006;BME280;53704;52.532;6.426;2023-10-13T09:07:55;100409.50;;;17.14;100.00
63006;BME280;53704;52.532;6.426;2023-10-13T09:10:30;100401.97;;;17.16;100.00
63006;BME280;53704;52.532;6.426;2023-10-13T09:12:58;100403.03;;;17.15;100.00
63006;BME280;53704;52.532;6.426;2023-10-13T09:15:29;100407.59;;;17.21;100.00
63006;BME280;53704;52.532;6.426;2023-10-13T09:18:25;100395.03;;;17.20;100.00
63006;BME280;53704;52.532;6.426;2023-10-13T09:21:08;100402.81;;;17.16;100.00
63006;BME280;53704;52.532;6.426;2023-10-13T09:23:53;100403.19;;;17.27;100.00
63006;BME280;53704;52.532;6.426;2023-10-13T09:26:38;100384.56;;;17.24;100.00
63006;BME280;53704;52.532;6.426;2023-10-13T09:29:14;100392.84;;;17.35;100.00
63006;BME280;53704;52.532;6.426;2023-10-13T09:31:40;100382.94;;;17.16;100.00
63006;BME280;53704;52.532;6.426;2023-10-13T09:34:10;100375.38;;;17.18;100.00
63006;BME280;53704;52.532;6.426;2023-10-13T09:36:40;100353.69;;;17.11;100.00
63006;BME280;53704;52.532;6.426;2023-10-13T09:39:08;100358.09;;;17.06;100.00
63006;BME280;53704;52.532;6.426;2023-10-13T09:41:40;100376.88;;;17.14;100.00
63006;BME280;53704;52.532;6.426;2023-10-13T09:44:06;100382.50;;;17.19;100.00
63006;BME280;53704;52.532;6.426;2023-10-13T09:46:37;100376.00;;;17.20;100.00
63006;BME280;53704;52.532;6.426;2023-10-13T09:49:14;100359.88;;;17.25;100.00
63006;BME280;53704;52.532;6.426;2023-10-13T09:52:13;100356.19;;;17.13;100.00
63006;BME280;53704;52.532;6.426;2023-10-13T09:54:44;100356.13;;;17.20;100.00
63006;BME280;53704;52.532;6.426;2023-10-13T09:57:17;100359.28;;;17.16;100.00
63006;BME280;53704;52.532;6.426;2023-10-13T10:00:00;100361.19;;;17.09;100.00
63006;BME280;53704;52.532;6.426;2023-10-13T10:02:32;100365.97;;;17.14;100.00
63006;BME280;53704;52.532;6.426;2023-10-13T10:04:59;100352.81;;;17.11;100.00
63006;BME280;53704;52.532;6.426;2023-10-13T10:07:41;100350.75;;;17.13;100.00
63006;BME280;53704;52.532;6.426;2023-10-13T10:10:09;100344.06;;;17.09;100.00
63006;BME280;53704;52.532;6.426;2023-10-13T10:12:52;100341.50;;;17.14;100.00
63006;BME280;53704;52.532;6.426;2023-10-13T10:15:33;100339.66;;;17.08;100.00
63006;BME280;53704;52.532;6.426;2023-10-13T10:18:03;100334.41;;;17.13;100.00
63006;BME280;53704;52.532;6.426;2023-10-13T10:20:36;100331.47;;;17.14;100.00
63006;BME280;53704;52.532;6.426;2023-10-13T10:23:28;100335.78;;;17.29;100.00
63006;BME280;53704;52.532;6.426;2023-10-13T10:25:55;100327.88;;;17.21;100.00
63006;BME280;53704;52.532;6.426;2023-10-13T10:28:52;100333.72;;;17.24;100.00
63006;BME280;53704;52.532;6.426;2023-10-13T10:31:31;100314.28;;;17.21;100.00
63006;BME280;53704;52.532;6.426;2023-10-13T10:34:12;100303.78;;;17.24;100.00
63006;BME280;53704;52.532;6.426;2023-10-13T10:39:37;100300.78;;;17.32;100.00
63006;BME280;53704;52.532;6.426;2023-10-13T10:42:13;100290.69;;;17.40;100.00
63006;BME280;53704;52.532;6.426;2023-10-13T10:44:42;100280.69;;;17.33;100.00
63006;BME280;53704;52.532;6.426;2023-10-13T10:47:14;100268.06;;;17.46;100.00
63006;BME280;53704;52.532;6.426;2023-10-13T10:50:04;100268.34;;;17.56;100.00
63006;BME280;53704;52.532;6.426;2023-10-13T10:52:55;100252.81;;;17.63;100.00
63006;BME280;53704;52.532;6.426;2023-10-13T10:55:25;100255.78;;;17.55;100.00
63006;BME280;53704;52.532;6.426;2023-10-13T11:01:29;100240.91;;;17.58;100.00
63006;BME280;53704;52.532;6.426;2023-10-13T11:18:05;100215.59;;;17.76;100.00
63006;BME280;53704;52.532;6.426;2023-10-13T11:20:55;100215.91;;;17.67;100.00
63006;BME280;53704;52.532;6.426;2023-10-13T11:24:03;100216.97;;;17.85;100.00
63006;BME280;53704;52.532;6.426;2023-10-13T11:26:40;100203.84;;;18.00;100.00
63006;BME280;53704;52.532;6.426;2023-10-13T11:29:16;100201.56;;;17.97;100.00
63006;BME280;53704;52.532;6.426;2023-10-13T11:31:47;100186.13;;;18.10;100.00
63006;BME280;53704;52.532;6.426;2023-10-13T11:34:24;100184.53;;;18.20;100.00
63006;BME280;53704;52.532;6.426;2023-10-13T11:36:52;100169.81;;;18.21;100.00
63006;BME280;53704;52.532;6.426;2023-10-13T11:39:18;100161.47;;;18.35;100.00
63006;BME280;53704;52.532;6.426;2023-10-13T11:41:55;100157.41;;;18.25;100.00
63006;BME280;53704;52.532;6.426;2023-10-13T11:44:21;100165.63;;;18.37;100.00
63006;BME280;53704;52.532;6.426;2023-10-13T11:46:51;100161.06;;;18.19;100.00
63006;BME280;53704;52.532;6.426;2023-10-13T11:49:21;100156.25;;;18.33;100.00
63006;BME280;53704;52.532;6.426;2023-10-13T11:51:53;100146.53;;;18.37;100.00
63006;BME280;53704;52.532;6.426;2023-10-13T11:54:35;100150.25;;;18.43;100.00
63006;BME280;53704;52.532;6.426;2023-10-13T11:57:07;100157.91;;;18.34;100.00
63006;BME280;53704;52.532;6.426;2023-10-13T11:59:33;100132.56;;;18.34;100.00
63006;BME280;53704;52.532;6.426;2023-10-13T12:02:01;100124.16;;;18.35;100.00
63006;BME280;53704;52.532;6.426;2023-10-13T12:04:37;100122.03;;;18.37;100.00
63006;BME280;53704;52.532;6.426;2023-10-13T12:07:18;100116.38;;;18.51;100.00
63006;BME280;53704;52.532;6.426;2023-10-13T12:10:05;100098.81;;;18.47;100.00
63006;BME280;53704;52.532;6.426;2023-10-13T12:12:40;100094.56;;;18.51;100.00
63006;BME280;53704;52.532;6.426;2023-10-13T12:15:09;100101.53;;;18.47;100.00
63006;BME280;53704;52.532;6.426;2023-10-13T12:17:38;100086.41;;;18.51;100.00
63006;BME280;53704;52.532;6.426;2023-10-13T12:20:10;100089.47;;;18.42;100.00
63006;BME280;53704;52.532;6.426;2023-10-13T12:22:46;100091.81;;;18.39;100.00
63006;BME280;53704;52.532;6.426;2023-10-13T12:25:21;100086.38;;;18.39;100.00
63006;BME280;53704;52.532;6.426;2023-10-13T12:27:58;100084.72;;;18.50;100.00
63006;BME280;53704;52.532;6.426;2023-10-13T12:30:38;100088.03;;;18.40;100.00
63006;BME280;53704;52.532;6.426;2023-10-13T12:33:20;100082.63;;;18.52;100.00
63006;BME280;53704;52.532;6.426;2023-10-13T12:36:06;100093.72;;;18.38;100.00
63006;BME280;53704;52.532;6.426;2023-10-13T12:38:37;100098.94;;;18.40;100.00
63006;BME280;53704;52.532;6.426;2023-10-13T12:45:15;100102.69;;;18.69;100.00
63006;BME280;53704;52.532;6.426;2023-10-13T13:05:54;100102.41;;;18.59;100.00
63006;BME280;53704;52.532;6.426;2023-10-13T13:18:54;100111.78;;;18.75;100.00
63006;BME280;53704;52.532;6.426;2023-10-13T13:21:26;100103.25;;;18.71;100.00
63006;BME280;53704;52.532;6.426;2023-10-13T13:23:52;100114.28;;;18.76;100.00
63006;BME280;53704;52.532;6.426;2023-10-13T13:26:27;100116.88;;;18.71;100.00
63006;BME280;53704;52.532;6.426;2023-10-13T13:32:32;100120.91;;;18.69;100.00
63006;BME280;53704;52.532;6.426;2023-10-13T13:38:57;100109.66;;;18.53;100.00
63006;BME280;53704;52.532;6.426;2023-10-13T13:41:25;100118.53;;;18.49;100.00
63006;BME280;53704;52.532;6.426;2023-10-13T13:44:00;100112.09;;;18.55;100.00
63006;BME280;53704;52.532;6.426;2023-10-13T13:47:17;100122.19;;;18.54;100.00
63006;BME280;53704;52.532;6.426;2023-10-13T13:49:43;100119.06;;;18.39;100.00
63006;BME280;53704;52.532;6.426;2023-10-13T13:52:16;100123.47;;;18.40;100.00
63006;BME280;53704;52.532;6.426;2023-10-13T13:54:46;100112.31;;;18.41;100.00
63006;BME280;53704;52.532;6.426;2023-10-13T13:57:12;100106.00;;;18.29;100.00
63006;BME280;53704;52.532;6.426;2023-10-13T13:59:39;100102.88;;;18.14;100.00
63006;BME280;53704;52.532;6.426;2023-10-13T14:02:04;100106.16;;;18.04;100.00
63006;BME280;53704;52.532;6.426;2023-10-13T14:04:44;100104.78;;;18.13;100.00
63006;BME280;53704;52.532;6.426;2023-10-13T14:07:13;100110.78;;;18.03;100.00
63006;BME280;53704;52.532;6.426;2023-10-13T14:09:41;100106.44;;;18.14;100.00
63006;BME280;53704;52.532;6.426;2023-10-13T14:12:09;100113.84;;;17.95;100.00
63006;BME280;53704;52.532;6.426;2023-10-13T14:14:53;100117.59;;;17.94;100.00
63006;BME280;53704;52.532;6.426;2023-10-13T14:17:24;100111.84;;;17.84;100.00
63006;BME280;53704;52.532;6.426;2023-10-13T14:19:58;100112.38;;;17.74;100.00